sensor_id;sensor_type;location;lat;lon;timestamp;pressure;altitude;pressure_sealevel;temperature;humidity
12452;BME280;72521;48.924;12.204;2023-11-21T00:04:31;96912.38;;;6.48;89.92
12452;BME280;72521;48.924;12.204;2023-11-21T00:09:35;96908.41;;;6.55;90.01
12452;BME280;72521;48.924;12.204;2023-11-21T00:14:41;96902.66;;;6.53;90.12
12452;BME280;72521;48.924;12.204;2023-11-21T00:19:45;96910.81;;;6.47;90.23
12452;BME280;72521;48.924;12.204;2023-11-21T00:24:50;96909.78;;;6.38;90.42
12452;BME280;72521;48.924;12.204;2023-11-21T00:29:55;96899.53;;;6.41;90.20
12452;BME280;72521;48.924;12.204;2023-11-21T00:34:59;96910.03;;;6.41;89.85
12452;BME280;72521;48.924;12.204;2023-11-21T00:40:05;96910.78;;;6.57;89.57
12452;BME280;72521;48.924;12.204;2023-11-21T00:45:11;96912.84;;;6.75;89.36
12452;BME280;72521;48.924;12.204;2023-11-21T00:50:15;96920.47;;;6.66;89.35
12452;BME280;72521;48.924;12.204;2023-11-21T00:55:19;96916.81;;;6.73;89.31
12452;BME280;72521;48.924;12.204;2023-11-21T01:00:25;96917.63;;;6.63;89.50
12452;BME280;72521;48.924;12.204;2023-11-21T01:05:29;96926.03;;;6.55;90.15
12452;BME280;72521;48.924;12.204;2023-11-21T01:10:33;96932.06;;;6.65;90.38
12452;BME280;72521;48.924;12.204;2023-11-21T01:15:39;96932.31;;;6.69;90.02
12452;BME280;72521;48.924;12.204;2023-11-21T01:20:44;96922.09;;;6.62;89.80
12452;BME280;72521;48.924;12.204;2023-11-21T01:25:50;96927.59;;;6.56;90.13
12452;BME280;72521;48.924;12.204;2023-11-21T01:30:57;96912.09;;;6.54;90.16
12452;BME280;72521;48.924;12.204;2023-11-21T01:36:01;96920.78;;;6.60;90.54
12452;BME280;72521;48.924;12.204;2023-11-21T01:41:05;96918.38;;;6.63;90.27
12452;BME280;72521;48.924;12.204;2023-11-21T01:46:11;96918.94;;;6.55;90.26
12452;BME280;72521;48.924;12.204;2023-11-21T01:51:15;96926.31;;;6.53;90.54
12452;BME280;72521;48.924;12.204;2023-11-21T01:56:20;96928.94;;;6.53;91.01
12452;BME280;72521;48.924;12.204;2023-11-21T02:01:25;96926.59;;;6.52;91.06
12452;BME280;72521;48.924;12.204;2023-11-21T02:06:30;96935.72;;;6.64;91.43
12452;BME280;72521;48.924;12.204;2023-11-21T02:11:34;96924.75;;;6.52;90.64
12452;BME280;72521;48.924;12.204;2023-11-21T02:16:43;96921.53;;;6.65;91.15
12452;BME280;72521;48.924;12.204;2023-11-21T02:21:51;96914.19;;;6.62;90.59
12452;BME280;72521;48.924;12.204;2023-11-21T02:26:57;96912.91;;;6.50;90.51
12452;BME280;72521;48.924;12.204;2023-11-21T02:32:01;96911.06;;;6.45;91.46
12452;BME280;72521;48.924;12.204;2023-11-21T02:37:06;96913.47;;;6.31;91.83
12452;BME280;72521;48.924;12.204;2023-11-21T02:42:12;96908.72;;;6.44;91.78
12452;BME280;72521;48.924;12.204;2023-11-21T02:47:16;96912.41;;;6.38;91.82
12452;BME280;72521;48.924;12.204;2023-11-21T02:52:20;96890.84;;;6.51;91.64
12452;BME280;72521;48.924;12.204;2023-11-21T02:57:25;96893.47;;;6.51;91.33
12452;BME280;72521;48.924;12.204;2023-11-21T03:02:29;96885.59;;;6.51;91.20
12452;BME280;72521;48.924;12.204;2023-11-21T03:07:36;96885.56;;;6.56;91.42
12452;BME280;72521;48.924;12.204;2023-11-21T03:12:42;96893.44;;;6.56;91.05
12452;BME280;72521;48.924;12.204;2023-11-21T03:17:47;96897.13;;;6.60;90.83
12452;BME280;72521;48.924;12.204;2023-11-21T03:22:53;96887.13;;;6.62;90.82
12452;BME280;72521;48.924;12.204;2023-11-21T03:27:58;96876.09;;;6.60;90.81
12452;BME280;72521;48.924;12.204;2023-11-21T03:33:03;96875.03;;;6.61;91.25
12452;BME280;72521;48.924;12.204;2023-11-21T03:38:06;96877.13;;;6.64;90.95
12452;BME280;72521;48.924;12.204;2023-11-21T03:43:13;96880.84;;;6.48;91.80
12452;BME280;72521;48.924;12.204;2023-11-21T03:48:17;96885.31;;;6.47;91.92
12452;BME280;72521;48.924;12.204;2023-11-21T03:53:21;96885.09;;;6.33;92.25
12452;BME280;72521;48.924;12.204;2023-11-21T03:58:27;96883.00;;;6.20;92.73
12452;BME280;72521;48.924;12.204;2023-11-21T04:03:31;96894.59;;;6.09;93.27
12452;BME280;72521;48.924;12.204;2023-11-21T04:08:35;96896.91;;;6.26;93.55
12452;BME280;72521;48.924;12.204;2023-11-21T04:13:41;96894.06;;;6.12;93.60
12452;BME280;72521;48.924;12.204;2023-11-21T04:18:46;96894.59;;;6.14;93.60
12452;BME280;72521;48.924;12.204;2023-11-21T04:23:50;96894.59;;;6.24;93.52
12452;BME280;72521;48.924;12.204;2023-11-21T04:28:55;96896.69;;;6.22;93.70
12452;BME280;72521;48.924;12.204;2023-11-21T04:33:59;96900.84;;;6.28;93.22
12452;BME280;72521;48.924;12.204;2023-11-21T04:39:04;96901.66;;;6.19;93.05
12452;BME280;72521;48.924;12.204;2023-11-21T04:44:10;96896.94;;;6.21;93.37
12452;BME280;72521;48.924;12.204;2023-11-21T04:49:14;96896.16;;;6.20;93.22
12452;BME280;72521;48.924;12.204;2023-11-21T04:54:18;96895.59;;;6.28;92.97
12452;BME280;72521;48.924;12.204;2023-11-21T04:59:24;96895.63;;;6.33;93.04
12452;BME280;72521;48.924;12.204;2023-11-21T05:04:29;96894.00;;;6.38;92.89
12452;BME280;72521;48.924;12.204;2023-11-21T05:09:33;96900.34;;;6.31;92.89
12452;BME280;72521;48.924;12.204;2023-11-21T05:14:39;96895.09;;;6.31;92.44
12452;BME280;72521;48.924;12.204;2023-11-21T05:19:44;96890.88;;;6.30;92.59
12452;BME280;72521;48.924;12.204;2023-11-21T05:24:52;96893.22;;;6.42;92.71
12452;BME280;72521;48.924;12.204;2023-11-21T05:29:57;96890.06;;;6.50;92.26
12452;BME280;72521;48.924;12.204;2023-11-21T05:35:02;96897.41;;;6.53;92.39
12452;BME280;72521;48.924;12.204;2023-11-21T05:40:08;96893.44;;;6.56;91.59
12452;BME280;72521;48.924;12.204;2023-11-21T05:45:14;96908.97;;;6.37;92.07
12452;BME280;72521;48.924;12.204;2023-11-21T05:50:18;96909.25;;;6.41;92.35
12452;BME280;72521;48.924;12.204;2023-11-21T05:55:23;96914.00;;;6.44;92.40
12452;BME280;72521;48.924;12.204;2023-11-21T06:00:30;96918.97;;;6.50;92.55
12452;BME280;72521;48.924;12.204;2023-11-21T06:05:35;96923.94;;;6.47;91.62
12452;BME280;72521;48.924;12.204;2023-11-21T06:10:40;96930.50;;;6.54;91.64
12452;BME280;72521;48.924;12.204;2023-11-21T06:15:46;96927.09;;;6.49;91.21
12452;BME280;72521;48.924;12.204;2023-11-21T06:20:49;96941.28;;;6.48;91.22
12452;BME280;72521;48.924;12.204;2023-11-21T06:25:55;96938.66;;;6.53;91.49
12452;BME280;72521;48.924;12.204;2023-11-21T06:31:01;96937.91;;;6.32;91.67
12452;BME280;72521;48.924;12.204;2023-11-21T06:36:09;96938.66;;;6.48;91.98
12452;BME280;72521;48.924;12.204;2023-11-21T06:41:14;96950.75;;;6.49;91.42
12452;BME280;72521;48.924;12.204;2023-11-21T06:46:20;96959.13;;;6.66;91.36
12452;BME280;72521;48.924;12.204;2023-11-21T06:51:24;96964.09;;;6.78;91.19
12452;BME280;72521;48.924;12.204;2023-11-21T06:56:28;96962.53;;;6.72;90.92
12452;BME280;72521;48.924;12.204;2023-11-21T07:01:33;96970.13;;;6.73;90.62
12452;BME280;72521;48.924;12.204;2023-11-21T07:06:41;96976.97;;;6.74;90.75
12452;BME280;72521;48.924;12.204;2023-11-21T07:11:46;96983.56;;;6.72;90.99
12452;BME280;72521;48.924;12.204;2023-11-21T07:16:52;96977.25;;;6.67;90.73
12452;BME280;72521;48.924;12.204;2023-11-21T07:21:56;96985.66;;;6.75;91.11
12452;BME280;72521;48.924;12.204;2023-11-21T07:27:00;96989.88;;;6.76;90.91
12452;BME280;72521;48.924;12.204;2023-11-21T07:32:06;96986.97;;;6.82;91.06
12452;BME280;72521;48.924;12.204;2023-11-21T07:37:12;96989.88;;;6.76;91.19
12452;BME280;72521;48.924;12.204;2023-11-21T07:42:15;96989.28;;;6.94;91.20
12452;BME280;72521;48.924;12.204;2023-11-21T07:47:22;97002.44;;;6.99;90.85
12452;BME280;72521;48.924;12.204;2023-11-21T07:52:30;96997.38;;;7.13;90.82
12452;BME280;72521;48.924;12.204;2023-11-21T07:57:34;97006.34;;;7.17;90.37
12452;BME280;72521;48.924;12.204;2023-11-21T08:02:41;97005.63;;;6.76;91.23
12452;BME280;72521;48.924;12.204;2023-11-21T08:07:48;97007.72;;;6.84;91.49
12452;BME280;72521;48.924;12.204;2023-11-21T08:12:53;97014.78;;;7.03;90.36
12452;BME280;72521;48.924;12.204;2023-11-21T08:17:58;97013.69;;;7.20;90.48
12452;BME280;72521;48.924;12.204;2023-11-21T08:23:02;97017.41;;;7.03;90.45
12452;BME280;72521;48.924;12.204;2023-11-21T08:28:08;97009.88;;;7.51;90.81
12452;BME280;72521;48.924;12.204;2023-11-21T08:33:14;97024.56;;;7.62;90.00
12452;BME280;72521;48.924;12.204;2023-11-21T08:38:17;97022.09;;;7.22;89.97
12452;BME280;72521;48.924;12.204;2023-11-21T08:43:21;97022.50;;;7.59;90.30
12452;BME280;72521;48.924;12.204;2023-11-21T08:48:28;97026.66;;;7.60;90.24
12452;BME280;72521;48.924;12.204;2023-11-21T08:53:32;97036.50;;;7.94;89.79
12452;BME280;72521;48.924;12.204;2023-11-21T08:58:36;97038.47;;;7.78;88.24
12452;BME280;72521;48.924;12.204;2023-11-21T09:03:42;97040.19;;;8.37;88.25
12452;BME280;72521;48.924;12.204;2023-11-21T09:08:46;97054.47;;;8.36;87.85
12452;BME280;72521;48.924;12.204;2023-11-21T09:13:53;97048.97;;;8.22;87.95
12452;BME280;72521;48.924;12.204;2023-11-21T09:18:59;97050.78;;;8.66;86.81
12452;BME280;72521;48.924;12.204;2023-11-21T09:24:05;97052.16;;;8.58;84.09
12452;BME280;72521;48.924;12.204;2023-11-21T09:29:11;97053.16;;;8.96;85.18
12452;BME280;72521;48.924;12.204;2023-11-21T09:34:17;97062.47;;;8.88;83.94
12452;BME280;72521;48.924;12.204;2023-11-21T09:39:21;97065.44;;;9.06;84.44
12452;BME280;72521;48.924;12.204;2023-11-21T09:44:35;97061.84;;;8.68;84.80
12452;BME280;72521;48.924;12.204;2023-11-21T09:49:40;97061.06;;;8.67;84.86
12452;BME280;72521;48.924;12.204;2023-11-21T09:54:45;97060.06;;;8.63;85.35
12452;BME280;72521;48.924;12.204;2023-11-21T09:59:51;97058.47;;;8.62;84.21
12452;BME280;72521;48.924;12.204;2023-11-21T10:05:00;97061.72;;;8.83;85.04
12452;BME280;72521;48.924;12.204;2023-11-21T10:10:08;97058.91;;;9.03;83.71
12452;BME280;72521;48.924;12.204;2023-11-21T10:15:13;97063.00;;;9.14;83.17
12452;BME280;72521;48.924;12.204;2023-11-21T10:20:20;97064.75;;;9.24;82.75
12452;BME280;72521;48.924;12.204;2023-11-21T10:25:24;97056.78;;;9.72;81.37
12452;BME280;72521;48.924;12.204;2023-11-21T10:30:32;97054.97;;;10.10;78.64
12452;BME280;72521;48.924;12.204;2023-11-21T10:35:43;97054.41;;;10.50;77.09
12452;BME280;72521;48.924;12.204;2023-11-21T10:40:54;97050.41;;;10.85;74.71
12452;BME280;72521;48.924;12.204;2023-11-21T10:45:59;97052.91;;;10.76;77.15
12452;BME280;72521;48.924;12.204;2023-11-21T10:51:08;97054.56;;;10.40;76.75
12452;BME280;72521;48.924;12.204;2023-11-21T10:56:14;97055.28;;;9.89;77.59
12452;BME280;72521;48.924;12.204;2023-11-21T11:01:25;97058.09;;;9.74;78.78
12452;BME280;72521;48.924;12.204;2023-11-21T11:06:33;97065.19;;;9.55;79.43
12452;BME280;72521;48.924;12.204;2023-11-21T11:11:37;97069.38;;;9.61;79.77
12452;BME280;72521;48.924;12.204;2023-11-21T11:16:43;97060.97;;;9.54;79.01
12452;BME280;72521;48.924;12.204;2023-11-21T11:21:57;97057.94;;;9.65;79.14
12452;BME280;72521;48.924;12.204;2023-11-21T11:27:25;97055.44;;;9.74;77.10
12452;BME280;72521;48.924;12.204;2023-11-21T11:32:43;97057.16;;;9.65;78.50
12452;BME280;72521;48.924;12.204;2023-11-21T11:37:52;97053.25;;;9.39;79.02
12452;BME280;72521;48.924;12.204;2023-11-21T11:42:57;97052.41;;;9.19;79.54
12452;BME280;72521;48.924;12.204;2023-11-21T11:48:04;97054.97;;;9.24;80.33
12452;BME280;72521;48.924;12.204;2023-11-21T11:53:15;97058.72;;;9.42;79.91
12452;BME280;72521;48.924;12.204;2023-11-21T11:58:20;97046.34;;;9.61;78.97
12452;BME280;72521;48.924;12.204;2023-11-21T12:03:25;97052.81;;;9.74;77.86
12452;BME280;72521;48.924;12.204;2023-11-21T12:08:31;97062.03;;;9.77;78.85
12452;BME280;72521;48.924;12.204;2023-11-21T12:13:35;97052.69;;;9.84;78.40
12452;BME280;72521;48.924;12.204;2023-11-21T12:18:40;97056.66;;;9.82;77.71
12452;BME280;72521;48.924;12.204;2023-11-21T12:23:46;97047.41;;;9.84;77.92
12452;BME280;72521;48.924;12.204;2023-11-21T12:28:52;97047.03;;;9.72;77.73
12452;BME280;72521;48.924;12.204;2023-11-21T12:33:58;97047.91;;;9.86;77.43
12452;BME280;72521;48.924;12.204;2023-11-21T12:39:04;97051.38;;;9.82;77.82
12452;BME280;72521;48.924;12.204;2023-11-21T12:44:12;97060.16;;;9.58;76.12
12452;BME280;72521;48.924;12.204;2023-11-21T12:49:18;97066.66;;;9.42;77.12
12452;BME280;72521;48.924;12.204;2023-11-21T12:54:23;97069.28;;;9.18;78.34
12452;BME280;72521;48.924;12.204;2023-11-21T12:59:28;97073.53;;;9.14;78.27
12452;BME280;72521;48.924;12.204;2023-11-21T13:04:33;97073.31;;;9.40;78.62
12452;BME280;72521;48.924;12.204;2023-11-21T13:09:39;97082.28;;;9.39;78.43
12452;BME280;72521;48.924;12.204;2023-11-21T13:14:43;97082.50;;;9.18;77.89
12452;BME280;72521;48.924;12.204;2023-11-21T13:19:49;97087.78;;;8.89;79.69
12452;BME280;72521;48.924;12.204;2023-11-21T13:24:54;97090.16;;;8.86;80.52
12452;BME280;72521;48.924;12.204;2023-11-21T13:29:59;97099.91;;;8.90;81.24
12452;BME280;72521;48.924;12.204;2023-11-21T13:35:03;97101.59;;;8.76;81.39
12452;BME280;72521;48.924;12.204;2023-11-21T13:40:12;97109.81;;;9.04;81.29
12452;BME280;72521;48.924;12.204;2023-11-21T13:45:17;97116.34;;;9.11;80.57
12452;BME280;72521;48.924;12.204;2023-11-21T13:50:23;97118.50;;;9.04;80.18
12452;BME280;72521;48.924;12.204;2023-11-21T13:55:34;97125.94;;;9.02;80.40
12452;BME280;72521;48.924;12.204;2023-11-21T14:00:38;97129.03;;;9.09;80.17
12452;BME280;72521;48.924;12.204;2023-11-21T14:05:48;97129.84;;;9.05;81.07
12452;BME280;72521;48.924;12.204;2023-11-21T14:10:55;97127.47;;;9.08;80.57
12452;BME280;72521;48.924;12.204;2023-11-21T14:16:00;97134.84;;;9.06;80.85
12452;BME280;72521;48.924;12.204;2023-11-21T14:21:05;97129.38;;;8.98;81.43
12452;BME280;72521;48.924;12.204;2023-11-21T14:26:15;97128.59;;;8.97;80.94
12452;BME280;72521;48.924;12.204;2023-11-21T14:31:20;97136.50;;;9.02;81.03
12452;BME280;72521;48.924;12.204;2023-11-21T14:36:25;97136.00;;;8.95;80.93
12452;BME280;72521;48.924;12.204;2023-11-21T14:41:30;97132.63;;;8.89;80.15
12452;BME280;72521;48.924;12.204;2023-11-21T14:46:34;97150.03;;;8.90;80.93
12452;BME280;72521;48.924;12.204;2023-11-21T14:51:40;97149.28;;;8.85;80.90
12452;BME280;72521;48.924;12.204;2023-11-21T14:57:04;97149.00;;;8.86;81.32
12452;BME280;72521;48.924;12.204;2023-11-21T15:02:12;97156.50;;;8.74;81.18
12452;BME280;72521;48.924;12.204;2023-11-21T15:07:24;97163.97;;;8.62;81.62
12452;BME280;72521;48.924;12.204;2023-11-21T15:12:31;97160.13;;;8.44;83.09
12452;BME280;72521;48.924;12.204;2023-11-21T15:17:40;97154.84;;;8.39;82.37
12452;BME280;72521;48.924;12.204;2023-11-21T15:22:47;97164.41;;;8.25;82.81
12452;BME280;72521;48.924;12.204;2023-11-21T15:27:52;97168.09;;;8.24;86.02
12452;BME280;72521;48.924;12.204;2023-11-21T15:32:57;97169.69;;;8.20;87.99
12452;BME280;72521;48.924;12.204;2023-11-21T15:38:01;97173.94;;;8.16;88.07
12452;BME280;72521;48.924;12.204;2023-11-21T15:43:06;97176.31;;;8.12;88.84
12452;BME280;72521;48.924;12.204;2023-11-21T15:48:11;97179.75;;;8.13;88.59
12452;BME280;72521;48.924;12.204;2023-11-21T15:53:15;97177.66;;;8.05;88.98
12452;BME280;72521;48.924;12.204;2023-11-21T15:58:20;97180.53;;;8.08;88.55
12452;BME280;72521;48.924;12.204;2023-11-21T16:03:24;97187.66;;;8.08;88.94
12452;BME280;72521;48.924;12.204;2023-11-21T16:08:29;97185.06;;;8.03;89.60
12452;BME280;72521;48.924;12.204;2023-11-21T16:13:34;97192.16;;;8.02;89.39
12452;BME280;72521;48.924;12.204;2023-11-21T16:18:38;97197.75;;;7.86;88.15
12452;BME280;72521;48.924;12.204;2023-11-21T16:23:42;97199.31;;;7.92;87.51
12452;BME280;72521;48.924;12.204;2023-11-21T16:28:47;97208.00;;;7.92;87.33
12452;BME280;72521;48.924;12.204;2023-11-21T16:33:54;97211.94;;;7.90;87.32
12452;BME280;72521;48.924;12.204;2023-11-21T16:39:00;97217.78;;;7.81;86.95
12452;BME280;72521;48.924;12.204;2023-11-21T16:44:12;97222.03;;;7.62;87.22
12452;BME280;72521;48.924;12.204;2023-11-21T16:49:17;97238.91;;;7.46;88.10
12452;BME280;72521;48.924;12.204;2023-11-21T16:54:21;97242.06;;;7.18;88.45
12452;BME280;72521;48.924;12.204;2023-11-21T16:59:28;97241.81;;;7.09;89.62
12452;BME280;72521;48.924;12.204;2023-11-21T17:04:32;97263.06;;;6.92;89.88
12452;BME280;72521;48.924;12.204;2023-11-21T17:09:37;97262.81;;;6.89;90.11
12452;BME280;72521;48.924;12.204;2023-11-21T17:14:43;97270.16;;;6.82;90.22
12452;BME280;72521;48.924;12.204;2023-11-21T17:19:49;97279.09;;;6.81;90.69
12452;BME280;72521;48.924;12.204;2023-11-21T17:24:53;97287.78;;;6.81;91.11
12452;BME280;72521;48.924;12.204;2023-11-21T17:29:58;97293.06;;;6.91;90.97
12452;BME280;72521;48.924;12.204;2023-11-21T17:35:03;97285.19;;;6.96;91.66
12452;BME280;72521;48.924;12.204;2023-11-21T17:40:12;97290.47;;;7.06;91.35
12452;BME280;72521;48.924;12.204;2023-11-21T17:45:18;97293.34;;;7.05;91.02
12452;BME280;72521;48.924;12.204;2023-11-21T17:50:22;97304.16;;;7.08;90.71
12452;BME280;72521;48.924;12.204;2023-11-21T17:55:30;97293.63;;;7.08;90.42
12452;BME280;72521;48.924;12.204;2023-11-21T18:00:35;97302.53;;;7.02;90.26
12452;BME280;72521;48.924;12.204;2023-11-21T18:05:39;97307.81;;;7.07;90.68
12452;BME280;72521;48.924;12.204;2023-11-21T18:10:44;97317.28;;;7.03;90.36
12452;BME280;72521;48.924;12.204;2023-11-21T18:15:51;97308.63;;;7.08;90.49
12452;BME280;72521;48.924;12.204;2023-11-21T18:20:55;97320.94;;;7.02;90.34
12452;BME280;72521;48.924;12.204;2023-11-21T18:25:59;97322.81;;;7.07;90.15
12452;BME280;72521;48.924;12.204;2023-11-21T18:31:07;97324.34;;;6.93;90.24
12452;BME280;72521;48.924;12.204;2023-11-21T18:36:12;97318.31;;;7.02;89.85
12452;BME280;72521;48.924;12.204;2023-11-21T18:41:20;97332.00;;;7.04;89.45
12452;BME280;72521;48.924;12.204;2023-11-21T18:46:26;97338.31;;;7.03;89.62
12452;BME280;72521;48.924;12.204;2023-11-21T18:51:31;97336.47;;;7.04;89.05
12452;BME280;72521;48.924;12.204;2023-11-21T18:56:36;97342.53;;;6.99;89.60
12452;BME280;72521;48.924;12.204;2023-11-21T19:01:42;97360.41;;;7.02;89.48
12452;BME280;72521;48.924;12.204;2023-11-21T19:06:47;97355.47;;;7.11;88.91
12452;BME280;72521;48.924;12.204;2023-11-21T19:11:51;97364.13;;;7.01;89.25
12452;BME280;72521;48.924;12.204;2023-11-21T19:16:57;97364.63;;;6.98;89.11
12452;BME280;72521;48.924;12.204;2023-11-21T19:22:02;97365.19;;;7.11;89.10
12452;BME280;72521;48.924;12.204;2023-11-21T19:27:06;97376.72;;;7.04;89.19
12452;BME280;72521;48.924;12.204;2023-11-21T19:32:11;97386.72;;;6.97;89.07
12452;BME280;72521;48.924;12.204;2023-11-21T19:37:15;97390.13;;;6.98;88.68
12452;BME280;72521;48.924;12.204;2023-11-21T19:42:20;97397.22;;;6.97;88.58
12452;BME280;72521;48.924;12.204;2023-11-21T19:47:28;97408.00;;;6.96;88.47
12452;BME280;72521;48.924;12.204;2023-11-21T19:52:37;97414.59;;;6.98;88.03
12452;BME280;72521;48.924;12.204;2023-11-21T19:57:42;97416.72;;;7.06;87.90
12452;BME280;72521;48.924;12.204;2023-11-21T20:02:48;97421.75;;;7.08;87.86
12452;BME280;72521;48.924;12.204;2023-11-21T20:07:52;97433.03;;;7.03;87.35
12452;BME280;72521;48.924;12.204;2023-11-21T20:12:56;97438.31;;;7.08;87.73
12452;BME280;72521;48.924;12.204;2023-11-21T20:18:06;97440.16;;;7.08;87.38
12452;BME280;72521;48.924;12.204;2023-11-21T20:23:10;97443.53;;;7.03;86.87
12452;BME280;72521;48.924;12.204;2023-11-21T20:28:14;97449.34;;;7.05;86.79
12452;BME280;72521;48.924;12.204;2023-11-21T20:33:20;97455.16;;;7.07;86.32
12452;BME280;72521;48.924;12.204;2023-11-21T20:38:25;97467.25;;;7.08;86.07
12452;BME280;72521;48.924;12.204;2023-11-21T20:43:30;97464.31;;;7.00;86.71
12452;BME280;72521;48.924;12.204;2023-11-21T20:48:35;97467.22;;;7.03;86.75
12452;BME280;72521;48.924;12.204;2023-11-21T20:53:40;97473.53;;;7.02;86.54
12452;BME280;72521;48.924;12.204;2023-11-21T20:58:44;97480.38;;;7.03;86.26
12452;BME280;72521;48.924;12.204;2023-11-21T21:03:50;97474.59;;;7.01;86.00
12452;BME280;72521;48.924;12.204;2023-11-21T21:08:55;97489.06;;;7.04;86.51
12452;BME280;72521;48.924;12.204;2023-11-21T21:14:00;97496.94;;;6.99;86.39
12452;BME280;72521;48.924;12.204;2023-11-21T21:19:06;97502.50;;;7.07;86.03
12452;BME280;72521;48.924;12.204;2023-11-21T21:24:10;97508.31;;;7.10;85.98
12452;BME280;72521;48.924;12.204;2023-11-21T21:29:15;97507.75;;;7.07;85.92
12452;BME280;72521;48.924;12.204;2023-11-21T21:34:20;97511.19;;;7.13;86.41
12452;BME280;72521;48.924;12.204;2023-11-21T21:39:24;97514.06;;;7.06;86.34
12452;BME280;72521;48.924;12.204;2023-11-21T21:44:28;97531.41;;;7.02;86.15
12452;BME280;72521;48.924;12.204;2023-11-21T21:49:34;97533.72;;;6.94;85.29
12452;BME280;72521;48.924;12.204;2023-11-21T21:54:40;97538.16;;;6.88;83.79
12452;BME280;72521;48.924;12.204;2023-11-21T21:59:44;97539.94;;;6.83;82.47
12452;BME280;72521;48.924;12.204;2023-11-21T22:04:53;97545.94;;;6.73;82.50
12452;BME280;72521;48.924;12.204;2023-11-21T22:09:58;97560.41;;;6.70;83.58
12452;BME280;72521;48.924;12.204;2023-11-21T22:15:02;97571.03;;;6.54;83.10
12452;BME280;72521;48.924;12.204;2023-11-21T22:20:11;97576.06;;;6.28;80.04
12452;BME280;72521;48.924;12.204;2023-11-21T22:25:15;97564.03;;;5.84;79.38
12452;BME280;72521;48.924;12.204;2023-11-21T22:30:20;97573.81;;;5.45;80.30
12452;BME280;72521;48.924;12.204;2023-11-21T22:35:29;97572.09;;;5.34;80.27
12452;BME280;72521;48.924;12.204;2023-11-21T22:40:34;97581.91;;;5.21;80.24
12452;BME280;72521;48.924;12.204;2023-11-21T22:45:38;97582.31;;;5.13;80.50
12452;BME280;72521;48.924;12.204;2023-11-21T22:50:44;97584.09;;;5.08;81.17
12452;BME280;72521;48.924;12.204;2023-11-21T22:55:49;97598.69;;;5.04;81.44
12452;BME280;72521;48.924;12.204;2023-11-21T23:00:54;97603.50;;;4.90;81.30
12452;BME280;72521;48.924;12.204;2023-11-21T23:06:02;97606.19;;;4.78;80.61
12452;BME280;72521;48.924;12.204;2023-11-21T23:11:06;97609.34;;;4.64;79.28
12452;BME280;72521;48.924;12.204;2023-11-21T23:16:10;97608.72;;;4.73;78.33
12452;BME280;72521;48.924;12.204;2023-11-21T23:21:16;97612.00;;;4.35;79.01
12452;BME280;72521;48.924;12.204;2023-11-21T23:26:20;97617.19;;;4.47;78.63
12452;BME280;72521;48.924;12.204;2023-11-21T23:31:24;97624.84;;;4.65;78.34
12452;BME280;72521;48.924;12.204;2023-11-21T23:36:29;97626.56;;;4.43;78.09
12452;BME280;72521;48.924;12.204;2023-11-21T23:41:34;97626.19;;;4.51;78.19
12452;BME280;72521;48.924;12.204;2023-11-21T23:46:38;97622.03;;;4.38;78.26
12452;BME280;72521;48.924;12.204;2023-11-21T23:51:46;97630.03;;;4.32;78.44
12452;BME280;72521;48.924;12.204;2023-11-21T23:56:50;97626.84;;;4.30;78.27
